createdAt,value
2022-08-21T03:52:16.231Z,0.00
2022-08-21T03:53:16.994Z,0.00
2022-08-21T03:54:16.206Z,0.00
2022-08-21T03:55:16.196Z,0.00
2022-08-21T04:00:16.140Z,0.00
2022-08-21T04:01:16.189Z,0.00
2022-08-21T04:02:16.118Z,0.00
2022-08-21T04:05:16.088Z,0.00
2022-08-21T04:06:16.077Z,0.00
2022-08-21T04:07:16.065Z,0.00
2022-08-21T04:08:16.095Z,0.00
2022-08-21T04:09:16.043Z,0.00
2022-08-21T04:10:16.032Z,0.00
2022-08-21T04:11:16.021Z,0.00
2022-08-21T04:12:16.014Z,0.00
2022-08-21T04:13:15.997Z,0.00
2022-08-21T04:14:15.992Z,0.00
2022-08-21T04:15:15.978Z,0.00
2022-08-21T04:16:15.967Z,0.00
2022-08-21T04:17:15.957Z,0.00
2022-08-21T04:18:15.944Z,0.00
2022-08-21T04:19:15.937Z,0.00
2022-08-21T04:20:15.923Z,0.00
2022-08-21T04:21:15.912Z,0.00
2022-08-21T04:22:15.903Z,0.00
2022-08-21T04:23:23.334Z,0.00
2022-08-21T04:24:16.906Z,0.00
2022-08-21T04:25:15.870Z,0.00
2022-08-21T04:26:15.860Z,0.00
2022-08-21T04:27:15.846Z,0.00
2022-08-21T04:28:15.837Z,0.00
2022-08-21T04:29:15.829Z,0.00
2022-08-21T04:30:15.817Z,0.00
2022-08-21T04:31:15.806Z,5.62
2022-08-21T04:32:15.795Z,5.62
2022-08-21T04:33:15.783Z,5.62
2022-08-21T04:34:15.776Z,5.62
2022-08-21T04:35:15.762Z,5.62
2022-08-21T04:36:15.752Z,5.62
2022-08-21T04:37:15.740Z,5.62
2022-08-21T04:38:15.731Z,11.25
2022-08-21T04:39:15.720Z,11.25
2022-08-21T04:40:15.767Z,11.25
2022-08-21T04:41:15.698Z,11.25
2022-08-21T04:42:15.689Z,11.25
2022-08-21T04:43:15.677Z,11.25
2022-08-21T04:44:15.666Z,16.87
2022-08-21T04:45:15.655Z,16.87
2022-08-21T04:46:15.643Z,16.87
2022-08-21T04:47:15.640Z,16.87
2022-08-21T04:48:15.628Z,16.87
2022-08-21T04:49:15.616Z,22.50
2022-08-21T04:50:15.601Z,22.50
2022-08-21T04:51:15.591Z,22.50
2022-08-21T04:52:15.579Z,22.50
2022-08-21T04:53:15.575Z,22.50
2022-08-21T04:54:15.562Z,28.12
2022-08-21T04:55:15.545Z,28.12
2022-08-21T04:56:15.536Z,28.12
2022-08-21T04:57:15.525Z,28.12
2022-08-21T04:58:15.519Z,28.12
2022-08-21T04:59:15.503Z,28.12
2022-08-21T05:00:15.499Z,33.75
2022-08-21T05:01:15.542Z,33.75
2022-08-21T05:02:15.472Z,33.75
2022-08-21T05:03:15.461Z,33.75
2022-08-21T05:04:15.451Z,33.75
2022-08-21T05:05:15.443Z,39.37
2022-08-21T05:06:15.432Z,39.37
2022-08-21T05:07:15.420Z,39.37
2022-08-21T05:08:15.410Z,39.37
2022-08-21T05:09:15.397Z,39.37
2022-08-21T05:10:15.383Z,45.00
2022-08-21T05:11:15.374Z,45.00
2022-08-21T05:12:15.364Z,45.00
2022-08-21T05:13:15.356Z,45.00
2022-08-21T05:14:15.352Z,45.00
2022-08-21T05:15:15.335Z,45.00
2022-08-21T05:16:15.321Z,50.62
2022-08-21T05:17:16.336Z,50.62
2022-08-21T05:18:15.301Z,50.62
2022-08-21T05:19:15.290Z,50.62
2022-08-21T05:20:15.281Z,50.62
2022-08-21T05:21:15.268Z,50.62
2022-08-21T05:22:15.258Z,56.25
2022-08-21T05:23:15.247Z,56.25
2022-08-21T05:24:15.238Z,56.25
2022-08-21T05:25:15.226Z,56.25
2022-08-21T05:26:18.382Z,56.25
2022-08-21T05:27:15.208Z,56.25
2022-08-21T05:28:15.198Z,61.87
2022-08-21T05:29:15.183Z,61.87
2022-08-21T05:30:15.176Z,61.87
2022-08-21T05:31:15.165Z,61.87
2022-08-21T05:32:15.154Z,61.87
2022-08-21T05:33:15.141Z,61.87
2022-08-21T05:34:16.073Z,67.50
2022-08-21T05:35:15.127Z,67.50
2022-08-21T05:36:15.110Z,67.50
2022-08-21T05:37:15.098Z,67.50
2022-08-21T05:38:17.813Z,67.50
2022-08-21T05:39:15.080Z,67.50
2022-08-21T05:40:21.378Z,67.50
2022-08-21T05:41:16.076Z,67.50
2022-08-21T05:42:15.050Z,73.12
2022-08-21T05:43:15.038Z,73.12
2022-08-21T05:44:15.028Z,73.12
2022-08-21T05:45:15.019Z,73.12
2022-08-21T05:46:15.007Z,73.12
2022-08-21T05:47:14.996Z,73.12
2022-08-21T05:48:14.988Z,73.12
2022-08-21T05:49:14.973Z,78.75
2022-08-21T05:50:14.963Z,78.75
2022-08-21T05:51:14.951Z,78.75
2022-08-21T05:52:14.942Z,78.75
2022-08-21T05:53:14.939Z,78.75
2022-08-21T05:54:14.924Z,78.75
2022-08-21T05:55:14.916Z,78.75
2022-08-21T05:56:14.900Z,78.75
2022-08-21T05:57:14.892Z,78.75
2022-08-21T05:58:14.879Z,78.75
2022-08-21T05:59:14.871Z,84.37
2022-08-21T06:00:14.860Z,84.37
2022-08-21T06:01:14.884Z,84.37
2022-08-21T06:02:14.838Z,84.37
2022-08-21T06:03:14.830Z,84.37
2022-08-21T06:04:14.820Z,84.37
2022-08-21T06:05:16.667Z,84.37
2022-08-21T06:06:15.818Z,84.37
2022-08-21T06:07:14.787Z,84.37
2022-08-21T06:08:14.781Z,84.37
2022-08-21T06:09:14.768Z,84.37
2022-08-21T06:10:14.763Z,90.00
2022-08-21T06:11:14.748Z,90.00
2022-08-21T06:12:14.734Z,90.00
2022-08-21T06:13:14.726Z,90.00
2022-08-21T06:14:14.715Z,90.00
2022-08-21T06:15:14.705Z,90.00
2022-08-21T06:16:15.754Z,90.00
2022-08-21T06:17:14.684Z,90.00
2022-08-21T06:18:14.673Z,90.00
2022-08-21T06:19:14.664Z,90.00
2022-08-21T06:20:14.656Z,90.00
2022-08-21T06:21:14.763Z,90.00
2022-08-21T06:22:14.634Z,90.00
2022-08-21T06:23:14.618Z,90.00
2022-08-21T06:24:14.610Z,95.62
2022-08-21T06:25:14.603Z,95.62
2022-08-21T06:26:14.593Z,95.62
2022-08-21T06:27:14.579Z,95.62
2022-08-21T06:28:14.567Z,95.62
2022-08-21T06:29:14.558Z,95.62
2022-08-21T06:30:14.547Z,95.62
2022-08-21T06:31:14.537Z,95.62
2022-08-21T06:32:14.528Z,101.25
2022-08-21T06:33:14.514Z,101.25
2022-08-21T06:34:14.506Z,101.25
2022-08-21T06:35:14.498Z,101.25
2022-08-21T06:36:14.485Z,101.25
2022-08-21T06:37:14.477Z,101.25
2022-08-21T06:38:14.467Z,101.25
2022-08-21T06:39:24.762Z,101.25
2022-08-21T06:40:14.542Z,106.87
2022-08-21T06:41:14.433Z,106.87
2022-08-21T06:42:14.421Z,106.87
2022-08-21T06:43:14.956Z,106.87
2022-08-21T06:44:14.399Z,106.87
2022-08-21T06:45:14.393Z,106.87
2022-08-21T06:46:14.381Z,112.50
2022-08-21T06:47:14.371Z,112.50
2022-08-21T06:48:18.944Z,112.50
2022-08-21T06:49:21.461Z,112.50
2022-08-21T06:50:15.356Z,112.50
2022-08-21T06:51:14.326Z,118.12
2022-08-21T06:52:14.316Z,118.12
2022-08-21T06:53:14.309Z,118.12
2022-08-21T06:54:14.297Z,118.12
2022-08-21T06:55:22.382Z,123.75
2022-08-21T06:56:15.296Z,129.37
2022-08-21T06:57:14.266Z,135.00
2022-08-21T06:58:14.254Z,146.25
2022-08-21T06:59:14.241Z,151.87
2022-08-21T07:00:14.237Z,151.87
2022-08-21T07:01:14.305Z,151.87
2022-08-21T07:02:14.209Z,151.87
2022-08-21T07:03:14.203Z,151.87
2022-08-21T07:04:14.190Z,151.87
2022-08-21T07:05:18.397Z,157.50
2022-08-21T07:06:14.175Z,157.50
2022-08-21T07:07:14.158Z,157.50
2022-08-21T07:08:14.150Z,157.50
2022-08-21T07:09:14.141Z,157.50
2022-08-21T07:10:21.786Z,157.50
2022-08-21T07:11:15.143Z,157.50
2022-08-21T07:12:14.110Z,151.87
2022-08-21T07:13:14.107Z,151.87
2022-08-21T07:14:20.177Z,146.25
2022-08-21T07:15:15.103Z,151.87
2022-08-21T07:16:14.066Z,157.50
2022-08-21T07:17:14.054Z,157.50
2022-08-21T07:18:14.046Z,157.50
2022-08-21T07:19:14.037Z,157.50
2022-08-21T07:20:14.027Z,163.12
2022-08-21T07:21:14.013Z,163.12
2022-08-21T07:22:14.004Z,163.12
2022-08-21T07:23:13.991Z,163.12
2022-08-21T07:24:13.985Z,168.75
2022-08-21T07:25:13.973Z,168.75
2022-08-21T07:26:14.062Z,168.75
2022-08-21T07:27:13.953Z,168.75
2022-08-21T07:28:13.943Z,174.37
2022-08-21T07:29:13.932Z,180.00
2022-08-21T07:30:13.921Z,202.50
2022-08-21T07:31:13.909Z,208.12
2022-08-21T07:32:17.227Z,213.75
2022-08-21T07:33:13.893Z,225.00
2022-08-21T07:34:13.881Z,208.12
2022-08-21T07:35:13.872Z,208.12
2022-08-21T07:36:13.857Z,213.75
2022-08-21T07:37:13.848Z,219.37
2022-08-21T07:38:13.843Z,208.12
2022-08-21T07:39:13.829Z,202.50
2022-08-21T07:40:13.866Z,196.87
2022-08-21T07:41:13.813Z,196.87
2022-08-21T07:42:13.803Z,196.87
2022-08-21T07:43:13.791Z,208.12
2022-08-21T07:44:13.785Z,219.37
2022-08-21T07:45:13.773Z,219.37
2022-08-21T07:46:13.762Z,219.37
2022-08-21T07:48:13.738Z,219.37
2022-08-21T07:49:13.730Z,225.00
2022-08-21T07:50:13.716Z,225.00
2022-08-21T07:51:13.705Z,219.37
2022-08-21T07:52:13.700Z,219.37
2022-08-21T07:53:13.686Z,225.00
2022-08-21T07:54:17.265Z,225.00
2022-08-21T07:55:13.668Z,225.00
2022-08-21T07:56:13.660Z,219.37
2022-08-21T07:57:13.651Z,219.37
2022-08-21T07:58:13.637Z,225.00
2022-08-21T07:59:13.720Z,225.00
2022-08-21T08:00:13.617Z,225.00
2022-08-21T08:01:13.720Z,225.00
2022-08-21T08:02:13.599Z,225.00
2022-08-21T08:03:13.587Z,230.62
2022-08-21T08:04:13.599Z,236.25
2022-08-21T08:05:13.569Z,236.25
2022-08-21T08:06:13.566Z,236.25
2022-08-21T08:07:13.544Z,247.50
2022-08-21T08:08:13.538Z,247.50
2022-08-21T08:09:13.612Z,241.87
2022-08-21T08:10:13.516Z,241.87
2022-08-21T08:11:13.508Z,241.87
2022-08-21T08:12:13.497Z,236.25
2022-08-21T08:13:13.486Z,241.87
2022-08-21T08:14:13.549Z,241.87
2022-08-21T08:15:13.463Z,247.50
2022-08-21T08:16:13.455Z,241.87
2022-08-21T08:17:13.446Z,241.87
2022-08-21T08:18:13.434Z,236.25
2022-08-21T08:19:13.582Z,236.25
2022-08-21T08:20:13.414Z,241.87
2022-08-21T08:21:13.405Z,241.87
2022-08-21T08:22:13.397Z,241.87
2022-08-21T08:23:13.439Z,241.87
2022-08-21T08:24:19.072Z,236.25
2022-08-21T08:25:13.367Z,230.62
2022-08-21T08:26:13.358Z,230.62
2022-08-21T08:27:13.348Z,230.62
2022-08-21T08:28:17.070Z,247.50
2022-08-21T08:29:13.333Z,253.12
2022-08-21T08:30:13.326Z,258.75
2022-08-21T08:31:13.313Z,258.75
2022-08-21T08:32:13.302Z,253.12
2022-08-21T08:33:13.291Z,247.50
2022-08-21T08:34:13.286Z,236.25
2022-08-21T08:35:13.271Z,230.62
2022-08-21T08:36:13.264Z,219.37
2022-08-21T08:37:13.255Z,219.37
2022-08-21T08:38:13.242Z,225.00
2022-08-21T08:39:13.225Z,241.87
2022-08-21T08:40:14.313Z,247.50
2022-08-21T08:41:13.208Z,196.87
2022-08-21T08:42:33.778Z,225.00
2022-08-21T08:43:14.625Z,230.62
2022-08-21T08:44:13.176Z,230.62
2022-08-21T08:45:13.223Z,230.62
2022-08-21T08:46:13.159Z,225.00
2022-08-21T08:47:13.147Z,225.00
2022-08-21T08:48:14.091Z,219.37
2022-08-21T08:49:13.355Z,219.37
2022-08-21T08:50:13.120Z,213.75
2022-08-21T08:51:13.108Z,213.75
2022-08-21T08:52:13.100Z,213.75
2022-08-21T08:53:13.092Z,213.75
2022-08-21T08:54:13.082Z,213.75
2022-08-21T08:55:13.077Z,213.75
2022-08-21T08:56:13.062Z,202.50
2022-08-21T08:57:13.051Z,208.12
2022-08-21T08:58:13.045Z,208.12
2022-08-21T08:59:13.038Z,208.12
2022-08-21T09:00:13.027Z,208.12
2022-08-21T09:01:13.091Z,202.50
2022-08-21T09:02:13.007Z,202.50
2022-08-21T09:03:12.997Z,208.12
2022-08-21T09:04:12.986Z,208.12
2022-08-21T09:05:12.976Z,208.12
2022-08-21T09:09:12.934Z,208.12
2022-08-21T09:10:12.926Z,208.12
2022-08-21T09:11:12.922Z,208.12
2022-08-21T09:13:12.905Z,213.75
2022-08-21T09:14:12.892Z,213.75
2022-08-21T09:15:12.885Z,213.75
2022-08-21T09:16:12.874Z,213.75
2022-08-21T09:17:12.864Z,219.37
2022-08-21T09:18:12.856Z,213.75
2022-08-21T09:20:12.841Z,219.37
2022-08-21T09:21:12.827Z,219.37
2022-08-21T09:22:12.817Z,219.37
2022-08-21T09:23:12.808Z,219.37
2022-08-21T09:24:12.798Z,213.75
2022-08-21T09:25:12.788Z,213.75
2022-08-21T09:26:12.780Z,213.75
2022-08-21T09:27:12.773Z,213.75
2022-08-21T09:28:12.763Z,213.75
2022-08-21T09:29:12.755Z,213.75
2022-08-21T09:30:12.743Z,219.37
2022-08-21T09:31:12.741Z,230.62
2022-08-21T09:32:18.018Z,236.25
2022-08-21T09:33:12.717Z,230.62
2022-08-21T09:34:12.757Z,225.00
2022-08-21T09:35:12.701Z,225.00
2022-08-21T09:36:12.689Z,225.00
2022-08-21T09:37:12.680Z,225.00
2022-08-21T09:38:12.672Z,225.00
2022-08-21T09:39:12.660Z,225.00
2022-08-21T09:40:12.711Z,225.00
2022-08-21T09:41:12.644Z,225.00
2022-08-21T09:42:12.632Z,225.00
2022-08-21T09:43:12.624Z,225.00
2022-08-21T09:44:12.615Z,230.62
2022-08-21T09:45:12.608Z,230.62
2022-08-21T09:46:12.603Z,230.62
2022-08-21T09:48:12.581Z,230.62
2022-08-21T09:50:12.567Z,230.62
2022-08-21T09:51:12.549Z,236.25
2022-08-21T09:53:12.634Z,236.25
2022-08-21T09:54:12.522Z,236.25
2022-08-21T09:55:12.512Z,236.25
2022-08-21T09:56:12.512Z,230.62
2022-08-21T09:57:12.493Z,230.62
2022-08-21T09:58:12.488Z,230.62
2022-08-21T09:59:12.478Z,236.25
2022-08-21T10:00:12.467Z,236.25
2022-08-21T10:01:12.509Z,236.25
2022-08-21T10:02:12.452Z,236.25
2022-08-21T10:03:12.444Z,236.25
2022-08-21T10:05:12.424Z,241.87
2022-08-21T10:07:12.408Z,241.87
2022-08-21T10:08:12.399Z,241.87
2022-08-21T10:09:17.876Z,247.50
2022-08-21T10:10:13.401Z,247.50
2022-08-21T10:11:12.376Z,247.50
2022-08-21T10:12:12.368Z,253.12
2022-08-21T10:13:12.357Z,253.12
2022-08-21T10:15:12.355Z,258.75
2022-08-21T10:16:12.331Z,258.75
2022-08-21T10:17:12.320Z,264.37
2022-08-21T10:18:12.310Z,270.00
2022-08-21T10:19:12.303Z,286.87
2022-08-21T10:21:12.392Z,348.75
2022-08-21T10:22:12.276Z,320.62
2022-08-21T10:23:12.276Z,326.25
2022-08-21T10:24:12.259Z,365.62
2022-08-21T10:25:12.251Z,399.37
2022-08-21T10:26:13.419Z,393.75
2022-08-21T10:28:13.872Z,371.25
2022-08-21T10:29:12.220Z,376.87
2022-08-21T10:31:12.208Z,371.25
2022-08-21T10:32:25.882Z,376.87
2022-08-21T10:34:12.172Z,393.75
2022-08-21T10:37:12.150Z,405.00
2022-08-21T10:38:23.519Z,410.62
2022-08-21T10:41:12.113Z,405.00
2022-08-21T10:42:12.108Z,410.62
2022-08-21T10:44:12.089Z,427.50
2022-08-21T10:46:12.073Z,421.87
2022-08-21T10:47:12.063Z,427.50
2022-08-21T10:50:12.061Z,450.00
2022-08-21T10:53:12.017Z,466.87
2022-08-21T10:56:11.988Z,472.50
2022-08-21T10:58:11.971Z,506.25
2022-08-21T10:59:11.964Z,495.00
2022-08-21T11:00:12.026Z,511.87
2022-08-21T11:03:11.931Z,551.25
2022-08-21T11:04:11.932Z,573.75
2022-08-21T11:05:11.915Z,556.87
2022-08-21T11:06:11.902Z,528.75
2022-08-21T11:14:11.840Z,562.50
2022-08-21T11:15:28.769Z,551.25
2022-08-21T11:16:12.844Z,562.50
2022-08-21T11:17:12.126Z,613.12
2022-08-21T11:19:11.797Z,579.37
2022-08-21T11:20:11.788Z,596.25
2022-08-21T11:21:11.779Z,573.75
2022-08-21T11:23:11.976Z,579.37
2022-08-21T11:25:11.744Z,658.12
2022-08-21T11:26:11.735Z,618.75
2022-08-21T11:27:11.727Z,630.00
2022-08-21T11:30:11.703Z,646.87
2022-08-21T11:31:11.697Z,618.75
2022-08-21T11:32:11.682Z,669.37
2022-08-21T11:34:11.668Z,663.75
2022-08-21T11:35:11.658Z,675.00
2022-08-21T11:36:11.659Z,652.50
2022-08-21T11:37:11.640Z,680.62
2022-08-21T11:39:11.625Z,686.25
2022-08-21T11:41:11.610Z,720.00
2022-08-21T11:42:11.601Z,720.00
2022-08-21T11:44:11.588Z,658.12
2022-08-21T11:45:11.577Z,725.62
2022-08-21T11:46:11.569Z,770.62
2022-08-21T11:47:11.559Z,720.00
2022-08-21T11:48:11.554Z,742.50
2022-08-21T11:49:11.547Z,787.50
2022-08-21T11:52:11.549Z,736.87
2022-08-21T11:55:11.491Z,759.37
2022-08-21T11:56:11.488Z,770.62
2022-08-21T11:57:11.485Z,781.87
2022-08-21T11:59:11.484Z,804.37
2022-08-21T12:00:11.470Z,810.00
2022-08-21T12:01:11.443Z,793.12
2022-08-21T12:03:11.428Z,810.00
2022-08-21T12:08:11.391Z,793.12
2022-08-21T12:09:11.383Z,821.25
2022-08-21T12:11:11.367Z,866.25
2022-08-21T12:15:11.332Z,905.62
2022-08-21T12:16:11.327Z,883.12
2022-08-21T12:17:12.563Z,877.50
2022-08-21T12:20:11.294Z,860.62
2022-08-21T12:22:11.277Z,871.87
2022-08-21T12:26:15.837Z,916.87
2022-08-21T12:27:11.240Z,978.75
2022-08-21T12:29:20.394Z,933.75
2022-08-21T12:32:17.564Z,928.12
2022-08-21T12:37:15.531Z,883.12
2022-08-21T12:37:16.939Z,883.12
2022-08-21T16:44:08.517Z,855.00
2022-08-21T16:45:08.556Z,860.62
2022-08-21T16:46:52.630Z,871.87
2022-08-21T16:47:08.492Z,877.50
2022-08-21T16:48:08.480Z,877.50
2022-08-21T16:49:08.469Z,843.75
2022-08-21T16:50:08.471Z,826.87
2022-08-21T16:51:08.455Z,832.50
2022-08-21T16:52:08.444Z,849.37
2022-08-21T16:53:08.440Z,871.87
2022-08-21T16:54:08.437Z,815.62
2022-08-21T16:55:08.424Z,781.87
2022-08-21T16:56:08.415Z,753.75
2022-08-21T16:57:08.408Z,714.37
2022-08-21T16:58:08.401Z,691.87
2022-08-21T16:59:08.394Z,635.62
2022-08-21T17:00:08.385Z,618.75
2022-08-21T17:01:08.428Z,635.62
2022-08-21T17:02:08.367Z,686.25
2022-08-21T17:03:08.358Z,691.87
2022-08-21T17:04:08.351Z,669.37
2022-08-21T17:05:13.951Z,691.87
2022-08-21T17:06:08.337Z,669.37
2022-08-21T17:07:08.326Z,635.62
2022-08-21T17:08:08.317Z,658.12
2022-08-21T17:09:08.315Z,641.25
2022-08-21T17:10:08.300Z,596.25
2022-08-21T17:11:08.291Z,489.37
2022-08-21T17:12:08.284Z,388.12
2022-08-21T17:13:09.813Z,466.87
2022-08-21T17:14:08.271Z,523.12
2022-08-21T17:15:08.257Z,517.50
2022-08-21T17:16:08.250Z,455.62
2022-08-21T17:17:08.243Z,478.12
2022-08-21T17:18:08.238Z,433.12
2022-08-21T17:19:08.414Z,466.87
2022-08-21T17:20:08.218Z,461.25
2022-08-21T17:21:08.204Z,421.87
2022-08-21T17:22:08.195Z,416.25
2022-08-21T17:23:08.190Z,421.87
2022-08-21T17:24:08.176Z,410.62
2022-08-21T17:25:08.169Z,399.37
2022-08-21T17:26:08.159Z,433.12
2022-08-21T17:27:08.200Z,444.37
2022-08-21T17:28:08.141Z,421.87
2022-08-21T17:29:08.133Z,405.00
2022-08-21T17:30:08.126Z,281.25
2022-08-21T17:31:10.418Z,236.25
2022-08-21T17:32:08.108Z,258.75
2022-08-21T17:33:08.099Z,219.37
2022-08-21T17:34:08.088Z,225.00
2022-08-21T17:35:08.129Z,247.50
2022-08-21T17:36:08.070Z,196.87
2022-08-21T17:37:08.134Z,163.12
2022-08-21T17:38:08.108Z,219.37
2022-08-21T17:39:08.041Z,219.37
2022-08-21T17:40:08.198Z,174.37
2022-08-21T17:41:08.021Z,180.00
2022-08-21T17:42:08.012Z,208.12
2022-08-21T17:43:08.005Z,191.25
2022-08-21T17:44:07.998Z,163.12
2022-08-21T17:45:07.986Z,118.12
2022-08-21T17:46:07.980Z,78.75
2022-08-21T17:47:07.965Z,67.50
2022-08-21T17:48:07.963Z,61.87
2022-08-21T17:49:07.952Z,56.25
2022-08-21T17:50:07.941Z,45.00
2022-08-21T17:51:11.002Z,39.37
2022-08-21T17:52:07.967Z,39.37
2022-08-21T17:53:07.912Z,39.37
2022-08-21T17:54:07.900Z,39.37
2022-08-21T17:55:07.991Z,33.75
2022-08-21T17:56:07.889Z,33.75
2022-08-21T17:57:07.872Z,28.12
2022-08-21T17:58:07.865Z,28.12
2022-08-21T17:59:07.852Z,28.12
2022-08-21T18:00:07.843Z,22.50
2022-08-21T18:01:07.862Z,22.50
2022-08-21T18:02:09.904Z,22.50
2022-08-21T18:03:08.835Z,22.50
2022-08-21T18:04:07.802Z,22.50
2022-08-21T18:05:07.791Z,16.87
2022-08-21T18:06:07.789Z,16.87
2022-08-21T18:07:07.774Z,16.87
2022-08-21T18:08:07.765Z,16.87
2022-08-21T18:09:07.754Z,16.87
2022-08-21T18:10:07.744Z,11.25
2022-08-21T18:11:07.736Z,11.25
2022-08-21T18:12:07.827Z,11.25
2022-08-21T18:13:07.713Z,11.25
2022-08-21T18:14:08.167Z,11.25
2022-08-21T18:15:07.697Z,11.25
2022-08-21T18:16:07.684Z,5.62
2022-08-21T18:17:07.674Z,5.62
2022-08-21T18:18:07.665Z,5.62
2022-08-21T18:19:07.657Z,5.62
2022-08-21T18:20:07.646Z,5.62
2022-08-21T18:21:07.635Z,5.62
2022-08-21T18:22:07.625Z,5.62
2022-08-21T18:23:07.666Z,5.62
2022-08-21T18:24:07.607Z,0.00
2022-08-21T18:25:07.595Z,0.00
2022-08-21T18:26:07.589Z,0.00
2022-08-21T18:27:07.576Z,0.00
2022-08-21T18:28:07.568Z,0.00
2022-08-21T18:29:07.555Z,0.00
2022-08-21T18:30:07.547Z,0.00
2022-08-21T18:31:07.536Z,0.00
2022-08-21T18:32:07.677Z,0.00
2022-08-21T18:33:08.535Z,0.00
2022-08-21T18:34:07.505Z,0.00
2022-08-21T18:35:07.695Z,0.00
2022-08-21T18:36:07.484Z,0.00
2022-08-21T18:37:07.475Z,0.00
2022-08-21T18:38:07.461Z,0.00
2022-08-21T18:39:34.399Z,0.00
2022-08-21T18:40:08.623Z,0.00
2022-08-21T18:41:10.463Z,0.00
2022-08-21T18:42:07.423Z,0.00
2022-08-21T18:43:07.413Z,0.00
2022-08-21T18:44:07.400Z,0.00
2022-08-21T18:45:07.390Z,0.00
2022-08-21T18:46:07.486Z,0.00
2022-08-21T18:47:07.374Z,0.00
2022-08-21T18:48:07.363Z,0.00
2022-08-21T18:49:07.350Z,0.00
2022-08-21T18:50:10.655Z,0.00
2022-08-21T18:51:08.402Z,0.00
2022-08-21T18:52:07.322Z,0.00
2022-08-21T18:53:07.310Z,0.00
2022-08-21T18:58:07.262Z,0.00
2022-08-21T18:59:07.251Z,0.00
2022-08-21T19:00:07.236Z,0.00
2022-08-21T19:06:09.666Z,0.00
2022-08-21T19:07:07.167Z,0.00
2022-08-21T19:08:07.205Z,0.00
2022-08-21T19:09:07.149Z,0.00
2022-08-21T19:10:24.324Z,0.00
